Time;durP1;ratioP1;P1;durP2;ratioP2;P2;SDS_P1;SDS_P2;PMS_P1;PMS_P2;Temp;Humidity;BMP_temperature;BMP_pressure;BME280_temperature;BME280_humidity;BME280_pressure;Samples;Min_cycle;Max_cycle;Signal;HPM_P1;HPM_P2
2022/09/21 00:02:17;;;;;;;1.92;1.45;;;;;;;10.80;100.00;99787.69;1670959;84;21030;-72
2022/09/21 00:04:46;;;;;;;3.10;1.85;;;;;;;10.83;100.00;99786.95;1678327;85;21072;-70
2022/09/21 00:07:16;;;;;;;2.52;1.57;;;;;;;10.84;100.00;99790.01;1696870;84;21043;-72
2022/09/21 00:09:46;;;;;;;2.47;1.65;;;;;;;10.84;100.00;99788.64;1681975;83;21063;-70
2022/09/21 00:12:16;;;;;;;3.35;1.30;;;;;;;10.84;100.00;99792.75;1654585;85;21156;-73
2022/09/21 00:14:47;;;;;;;1.85;1.50;;;;;;;10.81;100.00;99789.91;1668926;84;21111;-72
2022/09/21 00:17:16;;;;;;;4.35;1.57;;;;;;;10.77;100.00;99790.02;1668434;84;21688;-73
2022/09/21 00:19:45;;;;;;;2.17;1.45;;;;;;;10.75;100.00;99788.02;1678283;85;21051;-73
2022/09/21 00:22:14;;;;;;;2.95;1.65;;;;;;;10.77;100.00;99785.91;1696817;84;21103;-73
2022/09/21 00:24:44;;;;;;;2.60;1.60;;;;;;;10.78;100.00;99784.86;1712517;84;21473;-71
2022/09/21 00:27:13;;;;;;;2.02;1.17;;;;;;;10.77;100.00;99791.39;1656369;85;21079;-71
2022/09/21 00:29:43;;;;;;;2.30;1.40;;;;;;;10.77;100.00;99784.54;1654868;87;21062;-72
2022/09/21 00:32:14;;;;;;;2.72;1.67;;;;;;;10.77;100.00;99788.65;1683940;85;21031;-71
2022/09/21 00:34:44;;;;;;;1.77;1.42;;;;;;;10.78;100.00;99784.86;1658993;85;21122;-71
2022/09/21 00:37:15;;;;;;;2.60;1.60;;;;;;;10.80;100.00;99792.33;1662144;86;21079;-72
2022/09/21 00:39:45;;;;;;;2.37;1.35;;;;;;;10.80;100.00;99788.22;1662127;85;21116;-73
2022/09/21 00:42:21;;;;;;;3.12;1.52;;;;;;;10.78;100.00;99791.17;1686918;85;21086;-71
2022/09/21 00:44:50;;;;;;;3.92;1.70;;;;;;;10.82;100.00;99786.64;1660119;84;21039;-73
2022/09/21 00:47:24;;;;;;;1.90;1.50;;;;;;;10.83;100.00;99796.02;1659172;85;21083;-74
2022/09/21 00:49:55;;;;;;;2.58;1.60;;;;;;;10.82;100.00;99795.70;1612652;87;21072;-71
2022/09/21 00:52:24;;;;;;;2.25;1.60;;;;;;;10.78;100.00;99786.23;1676628;85;21111;-72
2022/09/21 00:54:58;;;;;;;3.35;1.42;;;;;;;10.77;100.00;99788.13;1658655;85;21083;-72
2022/09/21 00:57:34;;;;;;;5.12;1.50;;;;;;;10.75;100.00;99772.42;1710619;82;21106;-72
2022/09/21 01:00:02;;;;;;;3.10;1.30;;;;;;;10.75;100.00;99768.84;1704290;84;21496;-74
2022/09/21 01:02:33;;;;;;;2.67;1.60;;;;;;;10.74;100.00;99772.64;1716755;82;21051;-71
2022/09/21 01:05:04;;;;;;;2.08;1.60;;;;;;;10.71;100.00;99775.28;1667692;85;21457;-72
2022/09/21 01:07:36;;;;;;;2.12;1.60;;;;;;;10.72;100.00;99776.12;1703601;84;21494;-72
2022/09/21 01:10:11;;;;;;;2.33;1.67;;;;;;;10.71;100.00;99780.76;1667711;86;21487;-71
2022/09/21 01:13:12;;;;;;;1.80;1.40;;;;;;;10.70;100.00;99779.60;1676343;85;21475;-71
2022/09/21 01:15:51;;;;;;;2.75;1.60;;;;;;;10.69;100.00;99777.39;1710575;84;21109;-71
2022/09/21 01:18:46;;;;;;;2.40;1.50;;;;;;;10.68;100.00;99777.60;1719198;82;21475;-73
2022/09/21 01:21:25;;;;;;;3.33;1.80;;;;;;;10.68;100.00;99775.70;1738894;82;20992;-71
2022/09/21 01:24:18;;;;;;;3.20;1.90;;;;;;;10.70;100.00;99778.23;1739704;82;21067;-72
2022/09/21 01:26:58;;;;;;;1.98;1.60;;;;;;;10.72;100.00;99776.96;1739791;82;21032;-71
2022/09/21 01:29:44;;;;;;;3.72;1.70;;;;;;;10.74;100.00;99770.74;1739924;82;21083;-71
2022/09/21 01:32:33;;;;;;;1.80;1.62;;;;;;;10.76;100.00;99775.48;1739829;82;21616;-72
2022/09/21 01:35:18;;;;;;;2.70;2.02;;;;;;;10.75;100.00;99774.32;1739508;82;21866;-71
2022/09/21 01:38:03;;;;;;;2.98;1.70;;;;;;;10.74;100.00;99772.64;1738588;82;21097;-75
2022/09/21 01:40:46;;;;;;;2.27;1.90;;;;;;;10.72;100.00;99779.70;1698845;84;21031;-72
2022/09/21 01:43:22;;;;;;;3.75;2.08;;;;;;;10.68;100.00;99781.72;1674754;85;21071;-70
2022/09/21 01:45:53;;;;;;;2.20;1.80;;;;;;;10.67;100.00;99785.51;1710438;84;21039;-72
2022/09/21 01:48:24;;;;;;;2.33;1.90;;;;;;;10.66;100.00;99787.41;1710510;84;21067;-70
2022/09/21 01:50:55;;;;;;;2.08;1.62;;;;;;;10.68;100.00;99785.82;1707551;82;21063;-72
2022/09/21 01:53:41;;;;;;;3.15;1.57;;;;;;;10.71;100.00;99788.14;1667367;86;21084;-73
2022/09/21 01:56:32;;;;;;;2.47;1.72;;;;;;;10.72;100.00;99776.12;1709056;83;21479;-72
2022/09/21 01:59:28;;;;;;;1.95;1.72;;;;;;;10.70;100.00;99780.45;1665521;84;21020;-71
2022/09/21 02:02:02;;;;;;;3.85;1.98;;;;;;;10.70;100.00;99771.38;1646384;85;21091;-71
2022/09/21 02:04:33;;;;;;;3.30;1.82;;;;;;;10.70;100.00;99782.34;1682144;85;21461;-71
2022/09/21 02:07:03;;;;;;;2.35;1.65;;;;;;;10.69;100.00;99780.66;1622808;85;21103;-71
2022/09/21 02:09:36;;;;;;;2.17;1.70;;;;;;;10.67;100.00;99786.35;1674872;85;21502;-72
2022/09/21 02:12:06;;;;;;;2.80;1.80;;;;;;;10.67;100.00;99779.50;1678655;85;21109;-70
2022/09/21 02:14:36;;;;;;;3.70;2.00;;;;;;;10.67;100.00;99777.29;1678936;85;21043;-72
2022/09/21 02:17:24;;;;;;;2.02;1.77;;;;;;;10.68;100.00;99789.94;1677133;85;21032;-72
2022/09/21 02:20:20;;;;;;;2.52;1.90;;;;;;;10.66;100.00;99790.15;1684114;85;21112;-72
2022/09/21 02:23:02;;;;;;;4.12;1.90;;;;;;;10.65;100.00;99786.25;1682866;85;21028;-71
2022/09/21 02:25:58;;;;;;;3.10;1.80;;;;;;;10.64;100.00;99782.67;1655173;86;21068;-73
2022/09/21 02:28:48;;;;;;;2.85;1.90;;;;;;;10.64;100.00;99797.73;1651607;85;21067;-71
2022/09/21 02:31:42;;;;;;;3.72;2.50;;;;;;;10.65;100.00;99799.42;1640646;86;21492;-71
2022/09/21 02:34:23;;;;;;;3.37;1.82;;;;;;;10.65;100.00;99795.31;1657544;84;21029;-70
2022/09/21 02:37:15;;;;;;;2.27;1.82;;;;;;;10.66;100.00;99797.52;1652342;85;21536;-71
2022/09/21 02:40:02;;;;;;;2.75;1.82;;;;;;;10.67;100.00;99795.09;1664852;86;21507;-69
2022/09/21 02:42:33;;;;;;;;;;;;;;;10.67;100.00;99792.36;1658644;86;21063;-71
2022/09/21 02:45:16;;;;;;;2.25;1.50;;;;;;;10.69;100.00;99797.09;1656441;86;20163;-72
2022/09/21 02:47:58;;;;;;;3.58;1.82;;;;;;;10.67;100.00;99800.05;1655623;86;21076;-71
2022/09/21 02:50:33;;;;;;;3.00;1.50;;;;;;;10.67;100.00;99795.94;1625310;86;21476;-70
2022/09/21 02:53:04;;;;;;;4.00;2.00;;;;;;;10.68;100.00;99803.63;1664107;85;21115;-69
2022/09/21 02:55:34;;;;;;;1.75;1.60;;;;;;;10.69;100.00;99803.95;1657559;85;21036;-72
2022/09/21 02:58:05;;;;;;;2.87;1.70;;;;;;;10.67;100.00;99800.05;1677121;84;21583;-69
2022/09/21 03:00:36;;;;;;;2.72;1.95;;;;;;;10.65;100.00;99806.27;1686324;84;21126;-70
2022/09/21 03:03:18;;;;;;;2.10;1.80;;;;;;;10.66;100.00;99807.95;1659148;86;21044;-70
2022/09/21 03:05:51;;;;;;;3.00;1.80;;;;;;;10.65;100.00;99808.17;1676220;85;21102;-71
2022/09/21 03:08:23;;;;;;;3.92;1.30;;;;;;;10.66;100.00;99812.06;1630106;87;21501;-70
2022/09/21 03:10:53;;;;;;;2.92;1.52;;;;;;;10.66;100.00;99810.69;1643292;87;21072;-70
2022/09/21 03:13:23;;;;;;;1.77;1.40;;;;;;;10.65;100.00;99820.50;1677592;85;21529;-70
2022/09/21 03:16:01;;;;;;;2.33;1.70;;;;;;;10.64;100.00;99818.81;1658003;86;21048;-70
2022/09/21 03:18:33;;;;;;;2.22;1.50;;;;;;;10.65;100.00;99817.75;1666780;85;21107;-68
2022/09/21 03:21:04;;;;;;;3.12;1.52;;;;;;;10.65;100.00;99821.86;1657136;85;21084;-70
2022/09/21 03:23:33;;;;;;;1.75;1.25;;;;;;;10.66;100.00;99829.88;1684463;85;21021;-71
2022/09/21 03:26:05;;;;;;;1.70;1.37;;;;;;;10.65;100.00;99830.08;1684414;85;20998;-69
2022/09/21 03:28:36;;;;;;;2.10;1.40;;;;;;;10.64;100.00;99822.92;1670312;86;21055;-71
2022/09/21 03:31:07;;;;;;;1.80;1.47;;;;;;;10.63;100.00;99822.08;1686560;84;21533;-69
2022/09/21 03:33:38;;;;;;;3.85;1.60;;;;;;;10.64;100.00;99824.29;1679877;85;21131;-72
2022/09/21 03:36:08;;;;;;;2.08;1.60;;;;;;;10.65;100.00;99821.86;1655725;85;21495;-70
2022/09/21 03:38:40;;;;;;;3.70;1.70;;;;;;;10.67;100.00;99819.23;1654107;85;21068;-70
2022/09/21 03:41:09;;;;;;;2.37;1.52;;;;;;;10.66;100.00;99820.28;1658894;85;21010;-70
2022/09/21 03:43:39;;;;;;;2.80;1.57;;;;;;;10.66;99.99;99827.66;1684443;85;21089;-71
2022/09/21 03:46:11;;;;;;;1.85;1.50;;;;;;;10.68;100.00;99818.17;1658703;85;21475;-70
2022/09/21 03:48:46;;;;;;;2.65;1.40;;;;;;;10.72;100.00;99821.33;1640751;87;21099;-70
2022/09/21 03:51:13;;;;;;;2.95;1.75;;;;;;;10.73;100.00;99813.42;1666681;85;21064;-72
2022/09/21 03:53:42;;;;;;;2.80;1.80;;;;;;;10.74;100.00;99815.11;1686860;85;21135;-71
2022/09/21 03:56:13;;;;;;;2.30;1.60;;;;;;;10.75;100.00;99823.64;1635467;85;21529;-70
2022/09/21 03:58:42;;;;;;;2.20;1.72;;;;;;;10.74;100.00;99824.70;1624939;87;21094;-72
2022/09/21 04:01:12;;;;;;;2.05;1.50;;;;;;;10.72;99.92;99829.02;1599473;87;21488;-69
2022/09/21 04:03:42;;;;;;;2.17;1.70;;;;;;;10.71;99.84;99834.19;1640722;87;21065;-71
2022/09/21 04:06:14;;;;;;;5.53;2.15;;;;;;;10.68;99.72;99830.50;1618157;88;21080;-71
2022/09/21 04:08:45;;;;;;;2.77;2.05;;;;;;;10.67;99.68;99832.08;1632741;88;21076;-69
2022/09/21 04:11:17;;;;;;;2.27;1.90;;;;;;;10.65;99.59;99832.83;1609673;88;21536;-70
2022/09/21 04:13:51;;;;;;;3.40;1.98;;;;;;;10.64;99.36;99840.73;1594728;90;21175;-70
2022/09/21 04:16:21;;;;;;;2.90;1.95;;;;;;;10.65;99.32;99845.16;1594856;90;21072;-70
2022/09/21 04:18:51;;;;;;;2.00;1.80;;;;;;;10.63;99.14;99845.89;1624527;88;21108;-70
2022/09/21 04:21:23;;;;;;;3.85;1.90;;;;;;;10.65;99.22;99839.14;1649382;87;21078;-70
2022/09/21 04:23:54;;;;;;;5.12;2.47;;;;;;;10.66;99.11;99838.62;1634770;87;21131;-71
2022/09/21 04:26:30;;;;;;;4.17;2.47;;;;;;;10.66;99.08;99841.36;1634742;87;21107;-71
2022/09/21 04:29:00;;;;;;;2.33;2.12;;;;;;;10.64;98.91;99848.42;1635028;88;21047;-71
2022/09/21 04:31:30;;;;;;;3.25;2.35;;;;;;;10.64;98.83;99847.05;1634802;87;21067;-71
2022/09/21 04:34:01;;;;;;;3.22;1.92;;;;;;;10.64;98.80;99851.16;1634049;87;21111;-69
2022/09/21 04:36:31;;;;;;;3.62;1.62;;;;;;;10.67;98.94;99852.63;1634924;88;21067;-71
2022/09/21 04:39:03;;;;;;;1.82;1.70;;;;;;;10.71;98.87;99858.00;1634494;87;21477;-71
2022/09/21 04:41:33;;;;;;;2.65;1.80;;;;;;;10.67;98.34;99851.27;1613011;88;21064;-70
2022/09/21 04:44:05;;;;;;;4.22;3.17;;;;;;;10.65;98.30;99851.47;1617134;88;21051;-71
2022/09/21 04:46:37;;;;;;;2.58;2.00;;;;;;;10.67;98.33;99852.63;1594805;90;21028;-71
2022/09/21 04:49:07;;;;;;;2.95;1.90;;;;;;;10.70;98.43;99852.20;1595570;88;21084;-71
2022/09/21 04:51:39;;;;;;;3.08;1.80;;;;;;;10.73;98.40;99854.00;1622187;87;21056;-71
2022/09/21 04:54:09;;;;;;;4.22;1.67;;;;;;;10.75;98.44;99854.63;1621636;88;21077;-72
2022/09/21 04:56:39;;;;;;;2.72;1.80;;;;;;;10.77;98.32;99855.78;1647654;85;21153;-70
2022/09/21 04:59:09;;;;;;;2.42;1.32;;;;;;;10.77;98.30;99855.78;1660460;86;21067;-71
2022/09/21 05:01:40;;;;;;;4.03;2.30;;;;;;;10.77;98.23;99858.53;1659843;86;21039;-71
2022/09/21 05:04:10;;;;;;;2.27;1.62;;;;;;;10.76;98.09;99860.95;1659743;86;21098;-71
2022/09/21 05:06:40;;;;;;;3.45;1.70;;;;;;;10.77;98.06;99862.11;1659977;85;21522;-72
2022/09/21 05:12:01;;;;;;;2.10;1.72;;;;;;;10.77;97.83;99855.26;1660699;85;21081;-68
2022/09/21 05:14:32;;;;;;;2.90;1.50;;;;;;;10.78;97.73;99861.05;1659909;86;21043;-69
2022/09/21 05:17:01;;;;;;;3.55;1.98;;;;;;;10.80;97.76;99864.42;1659823;86;21067;-71
2022/09/21 05:19:31;;;;;;;3.17;1.87;;;;;;;10.84;97.85;99858.52;1660041;85;21035;-71
2022/09/21 05:22:01;;;;;;;2.15;1.60;;;;;;;10.85;97.81;99859.67;1660139;86;21047;-71
2022/09/21 05:24:33;;;;;;;3.37;1.80;;;;;;;10.87;97.79;99858.94;1659884;86;20999;-71
2022/09/21 05:27:03;;;;;;;2.12;1.20;;;;;;;10.89;97.72;99852.71;1679354;85;21091;-70
2022/09/21 05:29:33;;;;;;;2.85;1.52;;;;;;;10.90;97.41;99860.41;1665754;84;21094;-70
2022/09/21 05:32:14;;;;;;;2.45;1.27;;;;;;;10.90;97.21;99870.00;1660061;86;21007;-68
2022/09/21 05:35:22;;;;;;;2.98;1.80;;;;;;;10.90;97.08;99870.00;1659818;86;21043;-71
2022/09/21 05:38:00;;;;;;;2.52;1.50;;;;;;;10.87;96.63;99874.01;1679920;84;21130;-71
2022/09/21 05:40:31;;;;;;;3.05;1.90;;;;;;;10.85;96.53;99867.90;1683539;85;21043;-72
2022/09/21 05:43:01;;;;;;;4.20;1.70;;;;;;;10.88;96.69;99866.63;1696831;84;21007;-73
2022/09/21 05:45:32;;;;;;;1.80;1.50;;;;;;;10.93;96.88;99862.20;1662172;83;21052;-72
2022/09/21 05:48:15;;;;;;;2.30;1.60;;;;;;;10.98;96.73;99865.14;1688960;84;21450;-72
2022/09/21 05:50:58;;;;;;;4.60;1.75;;;;;;;11.01;96.31;99872.94;1669813;84;21087;-71
2022/09/21 05:53:51;;;;;;;5.30;2.00;;;;;;;11.09;96.44;99877.38;1689754;84;21074;-72
2022/09/21 05:56:41;;;;;;;2.72;1.77;;;;;;;11.12;95.91;99876.95;1685582;84;21031;-72
2022/09/21 05:59:53;;;;;;;3.12;1.70;;;;;;;11.11;95.49;99877.48;1681284;85;21051;-73
2022/09/21 06:02:59;;;;;;;2.65;1.80;;;;;;;11.15;95.59;99882.53;1680684;84;21044;-74
2022/09/21 06:05:29;;;;;;;6.62;2.20;;;;;;;11.19;95.57;99883.79;1681448;85;21521;-72
2022/09/21 06:07:59;;;;;;;4.17;2.10;;;;;;;11.22;95.50;99879.25;1679807;85;21004;-73
2022/09/21 06:10:32;;;;;;;4.35;2.00;;;;;;;11.22;95.43;99881.99;1652644;86;21102;-74
2022/09/21 06:13:03;;;;;;;3.22;1.92;;;;;;;11.25;95.50;99895.27;1647513;87;21040;-73
2022/09/21 06:15:37;;;;;;;3.40;2.12;;;;;;;11.26;95.54;99888.73;1647666;87;21103;-73
2022/09/21 06:18:08;;;;;;;6.15;2.58;;;;;;;11.28;95.57;99886.62;1674521;85;21536;-71
2022/09/21 06:20:40;;;;;;;3.08;1.77;;;;;;;11.26;95.52;99886.83;1739808;82;21091;-73
2022/09/21 06:23:13;;;;;;;5.97;2.02;;;;;;;11.24;95.56;99888.11;1706111;82;21032;-72
2022/09/21 06:25:42;;;;;;;4.33;2.55;;;;;;;11.21;95.64;99890.75;1727287;82;21079;-72
2022/09/21 06:28:12;;;;;;;3.42;1.87;;;;;;;11.21;95.84;99894.02;1739838;82;21016;-74
2022/09/21 06:30:43;;;;;;;3.27;2.08;;;;;;;11.22;95.91;99889.69;1740156;82;21067;-69
2022/09/21 06:33:19;;;;;;;4.92;2.00;;;;;;;11.23;95.94;99892.75;1739900;82;21036;-74
2022/09/21 06:35:54;;;;;;;4.53;1.92;;;;;;;11.25;96.07;99903.50;1704519;84;21455;-74
2022/09/21 06:38:26;;;;;;;3.70;1.90;;;;;;;11.23;95.92;99899.60;1664709;85;21533;-73
2022/09/21 06:41:06;;;;;;;3.30;2.00;;;;;;;11.23;95.92;99894.12;1681952;85;21087;-72
2022/09/21 06:43:35;;;;;;;4.53;1.90;;;;;;;11.24;95.82;99896.33;1690524;82;21068;-71
2022/09/21 06:46:05;;;;;;;2.95;1.85;;;;;;;11.23;95.82;99897.39;1698726;84;21072;-74
2022/09/21 06:48:38;;;;;;;3.00;1.65;;;;;;;11.22;95.65;99897.92;1663024;86;21084;-74
2022/09/21 06:51:07;;;;;;;4.22;1.80;;;;;;;11.21;95.58;99896.23;1702125;82;21059;-71
2022/09/21 06:53:37;;;;;;;2.52;1.62;;;;;;;11.24;95.70;99900.45;1703747;84;21059;-70
2022/09/21 06:56:08;;;;;;;2.98;1.90;;;;;;;11.25;95.42;99908.98;1667338;85;21009;-72
2022/09/21 06:58:38;;;;;;;3.08;1.90;;;;;;;11.22;95.27;99896.55;1695964;84;21032;-73
2022/09/21 07:01:11;;;;;;;8.33;2.77;;;;;;;11.24;95.32;99910.05;1737455;82;21754;-73
2022/09/21 07:03:41;;;;;;;2.22;1.50;;;;;;;11.26;95.33;99907.92;1710751;82;21032;-73
2022/09/21 07:06:14;;;;;;;3.90;1.80;;;;;;;11.29;95.31;99910.24;1710338;84;21005;-71
2022/09/21 07:08:45;;;;;;;4.00;1.85;;;;;;;11.28;95.33;99910.77;1710362;84;21075;-73
2022/09/21 07:11:18;;;;;;;3.60;2.10;;;;;;;11.31;95.33;99923.21;1723016;82;21016;-72
2022/09/21 07:13:49;;;;;;;2.70;1.60;;;;;;;11.29;95.07;99919.31;1739765;82;21032;-70
2022/09/21 07:16:20;;;;;;;4.05;1.80;;;;;;;11.28;94.88;99920.37;1681317;84;21497;-73
2022/09/21 07:18:50;;;;;;;2.27;1.85;;;;;;;11.27;94.78;99924.17;1646167;87;21648;-70
2022/09/21 07:21:22;;;;;;;3.20;1.98;;;;;;;11.29;94.75;99922.58;1667921;85;21032;-72
2022/09/21 07:23:52;;;;;;;3.77;2.10;;;;;;;11.30;94.80;99925.64;1684657;85;21043;-72
2022/09/21 07:26:23;;;;;;;3.05;2.00;;;;;;;11.32;94.96;99929.86;1658461;85;21008;-73
2022/09/21 07:28:54;;;;;;;2.72;1.40;;;;;;;11.38;94.91;99932.27;1703436;84;21079;-74
2022/09/21 07:31:25;;;;;;;2.10;1.75;;;;;;;11.41;94.70;99928.56;1650359;86;21056;-73
2022/09/21 07:33:59;;;;;;;2.87;1.70;;;;;;;11.44;94.58;99932.25;1673666;84;21065;-74
2022/09/21 07:36:29;;;;;;;3.25;1.60;;;;;;;11.49;94.63;99940.37;1710417;83;21071;-74
2022/09/21 07:39:00;;;;;;;6.03;2.22;;;;;;;11.50;94.66;99937.94;1709632;84;21048;-73
2022/09/21 07:41:30;;;;;;;11.85;8.60;;;;;;;11.50;94.66;99936.56;1647504;87;21072;-73
2022/09/21 07:44:01;;;;;;;4.30;1.75;;;;;;;11.51;94.71;99939.09;1680560;85;21051;-73
2022/09/21 07:46:32;;;;;;;3.55;1.67;;;;;;;11.50;94.72;99938.78;1684688;82;21091;-73
2022/09/21 07:49:04;;;;;;;2.42;1.42;;;;;;;11.49;94.82;99945.33;1662240;86;21119;-72
2022/09/21 07:51:35;;;;;;;4.62;1.70;;;;;;;11.45;94.75;99946.81;1702035;82;21048;-73
2022/09/21 07:54:05;;;;;;;3.60;2.12;;;;;;;11.44;94.93;99945.13;1705610;84;21063;-72
2022/09/21 07:56:37;;;;;;;2.77;1.70;;;;;;;11.41;95.01;99949.14;1702036;83;21039;-73
2022/09/21 07:59:06;;;;;;;7.90;2.20;;;;;;;11.39;95.02;99947.67;1672255;85;21574;-68
2022/09/21 08:01:39;;;;;;;4.10;2.10;;;;;;;11.40;95.35;99952.94;1663553;85;21019;-70
2022/09/21 08:04:10;;;;;;;3.65;1.87;;;;;;;11.41;95.60;99952.41;1679231;85;21055;-68
2022/09/21 08:06:41;;;;;;;3.72;2.00;;;;;;;11.38;95.57;99956.42;1623318;88;21167;-70
2022/09/21 08:09:12;;;;;;;4.83;3.17;;;;;;;11.38;95.83;99961.91;1624454;87;21120;-71
2022/09/21 08:11:45;;;;;;;6.97;2.92;;;;;;;11.38;96.04;99955.58;1624507;87;21056;-71
2022/09/21 08:14:18;;;;;;;2.90;1.87;;;;;;;11.39;96.33;99959.48;1624668;87;21111;-73
2022/09/21 08:16:48;;;;;;;3.92;2.10;;;;;;;11.40;96.35;99957.05;1624482;88;21218;-72
2022/09/21 08:19:19;;;;;;;3.83;2.22;;;;;;;11.43;96.57;99959.91;1624471;87;21468;-73
2022/09/21 08:21:50;;;;;;;6.03;2.50;;;;;;;11.48;96.70;99961.47;1624570;87;21120;-74
2022/09/21 08:24:22;;;;;;;4.08;2.85;;;;;;;11.53;96.91;99958.08;1623603;88;21095;-72
2022/09/21 08:26:53;;;;;;;6.62;2.80;;;;;;;11.57;97.05;99962.08;1630246;88;21163;-73
2022/09/21 08:29:24;;;;;;;5.53;2.92;;;;;;;11.60;97.00;99965.77;1686589;85;21524;-73
2022/09/21 08:31:54;;;;;;;4.20;2.17;;;;;;;11.61;96.80;99958.70;1686733;85;21130;-75
2022/09/21 08:34:26;;;;;;;4.72;2.62;;;;;;;11.62;96.53;99959.00;1674374;85;21029;-72
2022/09/21 08:36:56;;;;;;;4.65;2.00;;;;;;;11.65;96.50;99959.11;1623182;87;21108;-72
2022/09/21 08:39:26;;;;;;;4.75;2.72;;;;;;;11.69;96.63;99957.61;1612287;88;21085;-74
2022/09/21 08:42:04;;;;;;;5.45;2.27;;;;;;;11.74;96.66;99952.36;1657810;86;21078;-74
2022/09/21 08:44:50;;;;;;;3.00;2.00;;;;;;;11.79;96.76;99958.59;1674294;85;21189;-73
2022/09/21 08:47:39;;;;;;;;;;;;;;;11.83;96.53;99950.24;1689037;85;21114;-72
2022/09/21 08:50:38;;;;;;;2.40;1.87;;;;;;;11.84;96.24;99959.63;1669497;85;20196;-74
2022/09/21 08:53:22;;;;;;;4.83;2.33;;;;;;;11.80;95.49;99958.38;1627710;86;21080;-72
2022/09/21 08:55:57;;;;;;;4.00;2.40;;;;;;;11.78;95.20;99961.88;1655687;86;21043;-72
2022/09/21 08:58:28;;;;;;;5.90;2.40;;;;;;;11.78;95.09;99958.28;1663991;85;21062;-73
2022/09/21 09:01:26;;;;;;;2.30;2.10;;;;;;;11.79;94.98;99970.95;1687723;84;21052;-75
2022/09/21 09:04:24;;;;;;;3.55;2.77;;;;;;;11.76;94.22;99972.19;1650786;87;21542;-75
2022/09/21 09:07:22;;;;;;;3.60;3.17;;;;;;;11.74;94.24;99964.17;1653601;84;21090;-72
2022/09/21 09:10:07;;;;;;;11.50;8.60;;;;;;;11.78;94.28;99972.01;1679079;85;21031;-73
2022/09/21 09:12:56;;;;;;;13.18;6.60;;;;;;;11.79;94.28;99970.95;1673019;85;21052;-73
2022/09/21 09:15:39;;;;;;;8.10;3.98;;;;;;;11.79;94.51;99966.83;1665266;85;21108;-72
2022/09/21 09:18:20;;;;;;;5.47;3.47;;;;;;;11.79;94.68;99972.32;1686699;85;21083;-72
2022/09/21 09:20:58;;;;;;;5.20;2.70;;;;;;;11.80;94.91;99974.01;1671746;86;21065;-72
2022/09/21 09:23:39;;;;;;;6.33;2.40;;;;;;;11.79;94.92;99972.32;1681863;83;21196;-72
2022/09/21 09:26:31;;;;;;;3.62;2.30;;;;;;;11.81;95.02;99977.06;1638806;87;21187;-74
2022/09/21 09:29:38;;;;;;;5.78;2.50;;;;;;;11.82;95.16;99972.73;1669045;85;21111;-73
2022/09/21 09:32:14;;;;;;;3.30;2.45;;;;;;;11.84;95.19;99976.64;1654634;86;21069;-74
2022/09/21 09:34:55;;;;;;;4.92;2.40;;;;;;;11.86;94.95;99977.27;1667850;85;21510;-73
2022/09/21 09:37:30;;;;;;;5.35;2.50;;;;;;;11.85;94.52;99979.69;1666897;85;21043;-73
2022/09/21 09:40:00;;;;;;;3.67;2.67;;;;;;;11.86;94.74;99975.89;1682228;84;21051;-72
2022/09/21 09:43:11;;;;;;;7.00;3.30;;;;;;;11.90;94.82;99981.26;1672397;85;21028;-72
2022/09/21 09:45:52;;;;;;;3.80;2.55;;;;;;;11.90;94.52;99975.23;1665826;85;21118;-74
2022/09/21 09:49:05;;;;;;;5.62;2.70;;;;;;;11.89;94.48;99983.16;1658105;85;21492;-73
2022/09/21 09:51:39;;;;;;;4.00;3.05;;;;;;;11.91;94.38;99985.69;1659566;85;21066;-71
2022/09/21 09:54:16;;;;;;;4.47;2.40;;;;;;;11.88;93.43;99983.38;1683822;85;21095;-73
2022/09/21 09:56:46;;;;;;;3.12;2.20;;;;;;;11.90;93.38;99986.75;1683923;84;21550;-73
2022/09/21 09:59:41;;;;;;;3.17;2.20;;;;;;;11.91;93.12;99992.55;1706188;84;21240;-73
2022/09/21 10:02:25;;;;;;;3.50;2.25;;;;;;;11.93;92.65;99986.31;1705254;82;21036;-73
2022/09/21 10:05:05;;;;;;;4.97;2.05;;;;;;;11.96;92.22;99985.87;1710392;82;21039;-73
2022/09/21 10:07:47;;;;;;;2.90;1.90;;;;;;;12.02;92.28;99987.76;1739658;82;21441;-75
2022/09/21 10:10:35;;;;;;;4.85;1.90;;;;;;;12.08;91.89;99981.39;1703572;84;21052;-74
2022/09/21 10:13:16;;;;;;;4.37;2.33;;;;;;;12.16;91.82;99988.02;1739672;82;21052;-72
2022/09/21 10:15:55;;;;;;;3.95;2.20;;;;;;;12.22;90.85;99984.92;1733679;82;21062;-74
2022/09/21 10:18:38;;;;;;;4.03;1.30;;;;;;;12.30;90.70;99986.05;1724517;82;21066;-71
2022/09/21 10:21:11;;;;;;;4.50;2.70;;;;;;;12.35;89.88;99980.73;1674895;85;21098;-72
2022/09/21 10:23:43;;;;;;;4.35;1.82;;;;;;;12.38;89.03;99979.80;1738177;82;21000;-72
2022/09/21 10:26:13;;;;;;;4.45;1.95;;;;;;;12.42;88.76;99982.11;1706623;82;21471;-72
2022/09/21 10:29:05;;;;;;;3.92;3.05;;;;;;;12.45;88.58;99983.88;1704625;84;21452;-72
2022/09/21 10:31:36;;;;;;;3.52;1.90;;;;;;;12.49;88.24;99984.28;1734378;82;21075;-73
2022/09/21 10:34:12;;;;;;;4.42;2.15;;;;;;;12.56;88.14;99977.69;1740127;82;21067;-72
2022/09/21 10:36:45;;;;;;;5.70;2.80;;;;;;;12.62;87.85;99984.20;1739681;82;21122;-73
2022/09/21 10:39:33;;;;;;;2.55;1.50;;;;;;;12.67;87.55;99994.00;1739474;82;21152;-74
2022/09/21 10:42:15;;;;;;;2.60;1.70;;;;;;;12.71;87.06;99986.99;1702185;82;21084;-72
2022/09/21 10:44:52;;;;;;;4.03;1.98;;;;;;;12.72;86.23;99992.80;1699095;84;21039;-73
2022/09/21 10:47:34;;;;;;;4.53;2.37;;;;;;;12.76;85.67;99989.08;1698283;83;21039;-73
2022/09/21 10:50:24;;;;;;;4.58;1.60;;;;;;;12.78;85.53;99993.29;1710166;84;21047;-73
2022/09/21 10:53:08;;;;;;;6.25;2.22;;;;;;;12.77;84.50;99999.85;1710345;84;21075;-70
2022/09/21 10:55:46;;;;;;;3.92;1.40;;;;;;;12.73;83.72;100001.36;1675692;85;21055;-69
2022/09/21 10:58:18;;;;;;;4.22;1.65;;;;;;;12.68;83.50;99991.56;1694099;84;21115;-68
2022/09/21 11:00:50;;;;;;;3.20;1.70;;;;;;;12.62;83.31;100004.81;1650995;86;21501;-69
2022/09/21 11:03:39;;;;;;;4.20;2.00;;;;;;;12.53;84.27;100006.98;1624570;88;21107;-72
2022/09/21 11:06:29;;;;;;;8.33;2.98;;;;;;;12.46;85.35;100002.59;1626537;88;21563;-71
2022/09/21 11:09:04;;;;;;;4.60;2.42;;;;;;;12.41;86.36;100009.27;1634472;87;21044;-72
2022/09/21 11:11:54;;;;;;;5.10;2.40;;;;;;;12.38;87.31;100005.06;1686932;85;21059;-71
2022/09/21 11:14:57;;;;;;;6.83;2.17;;;;;;;12.37;87.51;100006.96;1686078;85;21030;-73
2022/09/21 11:17:59;;;;;;;8.23;2.12;;;;;;;12.31;88.05;100000.94;1685705;85;21214;-70
2022/09/21 11:20:38;;;;;;;11.55;4.28;;;;;;;12.31;88.50;100001.47;1686866;85;21027;-74
2022/09/21 11:23:46;;;;;;;6.08;2.80;;;;;;;12.27;89.00;99999.69;1686807;85;21051;-72
2022/09/21 11:26:31;;;;;;;3.95;2.87;;;;;;;12.30;89.59;99995.13;1686732;85;21114;-72
2022/09/21 11:29:50;;;;;;;8.25;2.83;;;;;;;12.34;89.88;99994.16;1659492;85;21122;-69
2022/09/21 11:32:34;;;;;;;7.62;2.92;;;;;;;12.37;90.28;99991.01;1623568;88;21136;-70
2022/09/21 11:35:33;;;;;;;5.53;3.10;;;;;;;12.43;90.83;99993.41;1624495;87;21206;-70
2022/09/21 11:38:19;;;;;;;5.20;2.92;;;;;;;12.43;90.63;99994.78;1624519;87;21084;-71
2022/09/21 11:41:08;;;;;;;5.83;3.62;;;;;;;12.43;90.66;99992.03;1624607;88;21068;-73
2022/09/21 11:43:50;;;;;;;5.90;3.40;;;;;;;12.43;90.78;99994.25;1624807;88;21112;-71
2022/09/21 11:46:53;;;;;;;4.53;2.58;;;;;;;12.45;91.19;99998.99;1624399;87;21575;-70
2022/09/21 11:49:34;;;;;;;4.62;2.83;;;;;;;12.49;91.33;99997.48;1624591;88;21076;-70
2022/09/21 11:52:48;;;;;;;3.83;2.35;;;;;;;12.51;91.24;99994.52;1619885;87;21275;-72
2022/09/21 11:55:32;;;;;;;31.23;10.60;;;;;;;12.55;91.10;99995.23;1607697;88;21132;-71
2022/09/21 11:58:15;;;;;;;3.77;2.08;;;;;;;12.58;91.19;99994.80;1678168;85;21099;-69
2022/09/21 12:01:17;;;;;;;2.83;1.50;;;;;;;12.65;90.98;99999.72;1645104;86;21190;-69
2022/09/21 12:04:06;;;;;;;3.80;2.00;;;;;;;12.69;90.24;100000.96;1644287;86;21066;-70
2022/09/21 12:07:12;;;;;;;2.83;1.82;;;;;;;12.75;89.84;99994.27;1631625;86;21214;-70
2022/09/21 12:09:49;;;;;;;6.58;1.80;;;;;;;12.77;89.38;99988.86;1631709;88;21480;-69
2022/09/21 12:12:25;;;;;;;5.28;1.85;;;;;;;12.82;89.21;99992.31;1631553;88;21135;-69
2022/09/21 12:15:08;;;;;;;2.85;1.60;;;;;;;12.91;89.41;99991.81;1629256;87;21565;-70
2022/09/21 12:18:10;;;;;;;2.05;1.32;;;;;;;12.99;88.66;99981.92;1631462;86;21756;-73
2022/09/21 12:20:45;;;;;;;;;;;;;;;13.10;88.08;99979.00;1634055;88;21476;-68
2022/09/21 12:23:44;;;;;;;2.30;1.35;;;;;;;13.20;87.38;99979.91;1630007;88;20238;-69